Austin, Pennsylvania
Current Conditions -  °F | °C
As of 6:53 PM on Saturday 25 Oct 2014 (Local Time) from KBFD Reporting Station
Few Clouds Few Clouds  
Wind Chill: 58°   Ceiling: Unl
Heat Index: 58°   Visibility: 10mi
Dew Point: 46°   Wind: 15mph
Humidity: 65%   Direction: 290°WNW
Pressure: 29.68"   Gusts: 29mph
Location:  41.63°N, 78.09°W
Report Text: KBFD 252253Z AUTO 29013G25KT 10SM FEW035 FEW044 14/08 A2968 RMK AO2 SLP048 T01440078
Loading
Personal Weather Stations






























Interactive Weather Map
Tropical Storm Tracking
New forecast layout! Learn more

10-Day Weather Forecast

Advertisements
Track Severe Weather on mobile